Time;durP1;ratioP1;P1;durP2;ratioP2;P2;SDS_P1;SDS_P2;PMS_P1;PMS_P2;Temp;Humidity;BMP_temperature;BMP_pressure;BME280_temperature;BME280_humidity;BME280_pressure;Samples;Min_cycle;Max_cycle;Signal;HPM_P1;HPM_P2
2022/06/10 00:01:18;;;;;;;1999.90;999.90;;;;;;;16.15;71.41;95895.59;5015624;28;20026;-78
2022/06/10 00:03:43;;;;;;;1999.90;999.90;;;;;;;15.51;70.08;95839.25;5015362;28;20041;-75
2022/06/10 00:06:10;;;;;;;1999.90;999.90;;;;;;;16.07;71.26;95856.16;5016738;28;20033;-77
2022/06/10 00:08:40;;;;;;;1999.90;999.90;;;;;;;15.76;71.98;95834.94;5014919;28;20061;-77
2022/06/10 00:11:07;;;;;;;1999.90;999.90;;;;;;;16.18;71.61;95856.59;5011997;28;20034;-78
2022/06/10 00:13:36;;;;;;;1999.90;999.90;;;;;;;15.88;71.29;95886.06;5012481;28;20030;-78
2022/06/10 00:16:03;;;;;;;1999.90;999.90;;;;;;;15.84;71.06;95885.88;5012539;28;20022;-78
2022/06/10 00:18:31;;;;;;;1999.90;999.90;;;;;;;15.82;70.37;95895.38;5011722;28;20041;-78
2022/06/10 00:20:57;;;;;;;1999.90;999.90;;;;;;;15.36;71.40;95867.31;5012532;28;20018;-77
2022/06/10 00:23:23;;;;;;;1999.90;999.90;;;;;;;15.32;72.02;95815.44;5012121;28;20114;-77
2022/06/10 00:25:48;;;;;;;1999.90;999.90;;;;;;;16.04;71.90;95876.38;5012118;28;20156;-76
2022/06/10 00:28:14;;;;;;;1999.90;999.90;;;;;;;15.17;71.52;95823.97;5011520;28;20501;-78
2022/06/10 00:30:40;;;;;;;1999.90;999.90;;;;;;;15.95;70.97;95896.28;5011906;28;20033;-79
2022/06/10 00:33:06;;;;;;;1999.90;999.90;;;;;;;15.51;70.65;95842.72;5011594;28;20022;-78
2022/06/10 00:35:31;;;;;;;1999.90;999.90;;;;;;;15.61;72.57;95857.69;5012993;28;20080;-78
2022/06/10 00:37:57;;;;;;;1999.90;999.90;;;;;;;16.13;71.87;95897.03;5011751;28;20117;-76
2022/06/10 00:40:29;;;;;;;1999.90;999.90;;;;;;;15.98;71.56;95901.81;5012900;28;20026;-78
2022/06/10 00:42:56;;;;;;;;;;;;;;;15.96;70.84;95901.31;5012032;28;20022;-75
2022/06/10 00:45:44;;;;;;;1999.90;999.90;;;;;;;16.14;71.71;95891.34;5013124;28;20508;-78
2022/06/10 00:48:13;;;;;;;1999.90;999.90;;;;;;;16.09;70.97;95886.16;5011296;28;20561;-77
2022/06/10 00:50:39;;;;;;;1999.90;999.90;;;;;;;15.52;70.00;95811.31;5010818;28;20022;-71
2022/06/10 00:53:06;;;;;;;1999.90;999.90;;;;;;;15.83;70.89;95851.34;5010385;28;20032;-71
2022/06/10 00:55:32;;;;;;;1999.90;999.90;;;;;;;16.18;71.36;95897.66;5011828;28;20029;-71
2022/06/10 00:58:07;;;;;;;1999.90;999.90;;;;;;;15.96;70.43;95885.22;5010152;28;20026;-71
2022/06/10 01:00:36;;;;;;;1999.90;999.90;;;;;;;15.67;70.53;95891.28;5011783;28;20106;-71
2022/06/10 01:03:02;;;;;;;1999.90;999.90;;;;;;;15.23;69.57;95873.63;5011766;28;20022;-71
2022/06/10 01:05:28;;;;;;;1999.90;999.90;;;;;;;15.49;70.45;95820.75;5011787;28;20018;-71
2022/06/10 01:08:15;;;;;;;1999.90;999.90;;;;;;;15.70;69.15;95833.53;5010231;28;20022;-70
2022/06/10 01:10:55;;;;;;;1999.90;999.90;;;;;;;16.21;69.79;95888.16;5011606;28;20022;-71
2022/06/10 01:13:39;;;;;;;1999.90;999.90;;;;;;;15.55;71.05;95861.59;5011587;28;20030;-70
2022/06/10 01:16:20;;;;;;;1999.90;999.90;;;;;;;15.41;70.72;95885.13;5011538;28;20084;-71
2022/06/10 01:19:04;;;;;;;1999.90;999.90;;;;;;;15.27;71.49;95894.13;5010918;28;20383;-73
2022/06/10 01:21:36;;;;;;;1999.90;999.90;;;;;;;15.31;71.65;95881.66;5011106;28;20026;-71
2022/06/10 01:24:16;;;;;;;1999.90;999.90;;;;;;;15.58;71.08;95899.31;5010466;28;20026;-73
2022/06/10 01:30:32;;;;;;;1999.90;999.90;;;;;;;15.51;70.75;95880.25;5010974;28;20065;-71
2022/06/10 01:33:16;;;;;;;1999.90;999.90;;;;;;;15.73;71.03;95908.78;5008996;28;20038;-71
2022/06/10 01:35:51;;;;;;;1999.90;999.90;;;;;;;15.44;71.44;95814.78;5011211;28;20048;-71
2022/06/10 01:38:37;;;;;;;1999.90;999.90;;;;;;;15.62;69.25;95858.47;5010593;28;20491;-71
2022/06/10 01:41:21;;;;;;;1999.90;999.90;;;;;;;16.10;70.21;95909.19;5010889;28;20022;-71
2022/06/10 01:44:16;;;;;;;1999.90;999.90;;;;;;;15.67;70.01;95851.06;5009694;28;20033;-71
2022/06/10 01:47:21;;;;;;;1999.90;999.90;;;;;;;16.13;70.55;95881.72;5009886;28;20051;-71
2022/06/10 01:49:59;;;;;;;1999.90;999.90;;;;;;;16.16;70.06;95913.28;4989567;28;20040;-71
2022/06/10 01:52:46;;;;;;;1999.90;999.90;;;;;;;16.04;69.09;95905.09;5010723;28;20038;-71
2022/06/10 01:55:29;;;;;;;1999.90;999.90;;;;;;;16.01;69.32;95906.53;5010835;28;20033;-72
2022/06/10 01:58:22;;;;;;;1999.90;999.90;;;;;;;15.99;69.85;95892.66;5010649;28;20040;-71
2022/06/10 02:01:05;;;;;;;1999.90;999.90;;;;;;;16.21;70.23;95898.91;5011062;28;20030;-71
2022/06/10 02:03:30;;;;;;;;;;;;;;;15.99;69.28;95919.47;5010955;28;20501;-71
2022/06/10 02:06:00;;;;;;;1999.90;999.90;;;;;;;16.09;70.25;95884.25;5009670;28;19913;-71
2022/06/10 02:08:40;;;;;;;1999.90;999.90;;;;;;;16.42;70.25;95921.25;5009336;28;20279;-71
2022/06/10 02:11:12;;;;;;;1999.90;999.90;;;;;;;16.53;70.41;95927.03;5010346;28;20030;-70
2022/06/10 02:13:45;;;;;;;1999.90;999.90;;;;;;;16.58;70.17;95935.72;5009126;28;20522;-70
2022/06/10 02:16:15;;;;;;;1999.90;999.90;;;;;;;16.53;69.78;95919.78;5009371;28;20022;-70
2022/06/10 02:18:47;;;;;;;1999.90;999.90;;;;;;;16.36;68.98;95920.63;5010193;28;20029;-71
2022/06/10 02:21:22;;;;;;;1999.90;999.90;;;;;;;16.04;69.61;95922.00;5009548;28;20084;-70
2022/06/10 02:23:58;;;;;;;1999.90;999.90;;;;;;;16.02;69.88;95894.69;5009205;28;20053;-71
2022/06/10 02:26:30;;;;;;;1999.90;999.90;;;;;;;16.16;69.97;95923.22;5010302;28;20746;-71
2022/06/10 02:28:59;;;;;;;1999.90;999.90;;;;;;;16.18;68.90;95945.97;5009954;28;20030;-71
2022/06/10 02:31:35;;;;;;;1999.90;999.90;;;;;;;15.94;68.05;95925.00;5008721;28;20133;-67
2022/06/10 02:34:01;;;;;;;1999.90;999.90;;;;;;;16.38;69.39;95945.28;5009723;28;20022;-69
2022/06/10 02:36:37;;;;;;;1999.90;999.90;;;;;;;16.00;68.92;95925.63;5008997;28;20355;-68
2022/06/10 02:39:13;;;;;;;1999.90;999.90;;;;;;;15.63;68.78;95935.94;5009979;28;20028;-69
2022/06/10 02:41:46;;;;;;;1999.90;999.90;;;;;;;16.25;69.57;95954.31;5010128;28;20068;-69
2022/06/10 02:44:34;;;;;;;1999.90;999.90;;;;;;;15.98;69.27;95899.13;5009853;28;20014;-71
2022/06/10 02:47:14;;;;;;;1999.90;999.90;;;;;;;15.90;67.20;95932.13;5010025;28;20467;-68
2022/06/10 02:49:40;;;;;;;1999.90;999.90;;;;;;;15.88;67.34;95901.38;5009435;28;20022;-69
2022/06/10 02:52:08;;;;;;;1999.90;999.90;;;;;;;15.32;68.02;95936.06;5009747;28;20029;-68
2022/06/10 02:54:37;;;;;;;1999.90;999.90;;;;;;;15.53;68.88;95902.16;5009519;28;20057;-68
2022/06/10 02:57:12;;;;;;;1999.90;999.90;;;;;;;15.98;69.11;95962.75;5009856;28;20536;-68
2022/06/10 03:02:35;;;;;;;1999.90;999.90;;;;;;;15.67;67.23;95942.25;5009670;28;20109;-68
2022/06/10 03:05:41;;;;;;;1999.90;999.90;;;;;;;16.49;68.44;95969.88;5009799;28;20113;-69
2022/06/10 03:08:30;;;;;;;1999.90;999.90;;;;;;;16.57;67.87;95970.94;5008722;28;20042;-69
2022/06/10 03:11:13;;;;;;;1999.90;999.90;;;;;;;16.60;68.51;95976.47;5009616;28;20030;-69
2022/06/10 03:13:56;;;;;;;1999.90;999.90;;;;;;;16.66;67.68;95978.97;5009655;28;20022;-69
2022/06/10 03:16:28;;;;;;;1999.90;999.90;;;;;;;16.27;67.56;95949.41;5008280;28;20116;-69
2022/06/10 03:19:03;;;;;;;;;;;;;;;16.81;67.99;95983.84;5009780;28;20803;-68
2022/06/10 03:21:32;;;;;;;1999.90;999.90;;;;;;;16.81;67.69;95981.94;5009239;28;19975;-68
2022/06/10 03:24:24;;;;;;;1999.90;999.90;;;;;;;16.97;68.18;95989.47;5009362;28;20048;-69
2022/06/10 03:27:07;;;;;;;1999.90;999.90;;;;;;;17.00;67.51;95997.69;4978071;28;20463;-69
2022/06/10 03:29:44;;;;;;;1999.90;999.90;;;;;;;16.81;66.57;96000.75;5009185;28;20091;-69
2022/06/10 03:32:17;;;;;;;1999.90;999.90;;;;;;;16.49;66.91;95977.94;5009382;28;20029;-69
2022/06/10 03:34:56;;;;;;;1999.90;999.90;;;;;;;16.34;65.33;95968.50;5009574;28;20061;-69
2022/06/10 03:37:22;;;;;;;1999.90;999.90;;;;;;;16.64;67.19;95992.75;5009778;28;20029;-69
2022/06/10 03:39:56;;;;;;;1999.90;999.90;;;;;;;16.91;67.50;95980.81;5009166;28;20030;-69
2022/06/10 03:42:25;;;;;;;1999.90;999.90;;;;;;;16.97;66.15;96009.06;5009246;28;20113;-69
2022/06/10 03:44:54;;;;;;;1999.90;999.90;;;;;;;16.86;66.29;96005.16;5010274;28;20529;-69
2022/06/10 03:47:25;;;;;;;1999.90;999.90;;;;;;;16.43;64.94;95973.03;5011679;28;20471;-69
2022/06/10 03:49:57;;;;;;;1999.90;999.90;;;;;;;17.07;66.53;96010.59;5012855;28;20018;-69
2022/06/10 03:52:26;;;;;;;1999.90;999.90;;;;;;;17.02;66.35;95987.38;5012962;28;20029;-69
2022/06/10 03:54:51;;;;;;;1999.90;999.90;;;;;;;16.80;65.50;95972.31;5011794;28;20045;-69
2022/06/10 03:57:17;;;;;;;1999.90;999.90;;;;;;;16.39;64.74;95997.06;5012922;28;20030;-69
2022/06/10 03:59:44;;;;;;;1999.90;999.90;;;;;;;16.20;66.49;95942.94;5012840;28;20109;-69
2022/06/10 04:02:10;;;;;;;1999.90;999.90;;;;;;;16.09;65.64;95929.88;5012918;28;20057;-68
2022/06/10 04:04:35;;;;;;;1999.90;999.90;;;;;;;16.77;65.37;96020.53;5013361;28;20065;-68
2022/06/10 04:07:01;;;;;;;1999.90;999.90;;;;;;;15.59;65.21;95956.41;5013148;28;20528;-69
2022/06/10 04:09:26;;;;;;;1999.90;999.90;;;;;;;16.48;65.66;96003.22;5012295;28;20441;-69
2022/06/10 04:11:52;;;;;;;1999.90;999.90;;;;;;;16.46;65.77;95948.25;5012748;28;20052;-70
2022/06/10 04:14:17;;;;;;;1999.90;999.90;;;;;;;16.95;64.92;96030.13;5012371;28;20060;-71
2022/06/10 04:16:42;;;;;;;1999.90;999.90;;;;;;;16.34;63.14;95989.19;5012676;28;20471;-70
2022/06/10 04:19:10;;;;;;;1999.90;999.90;;;;;;;16.58;64.47;95965.28;5012148;28;20360;-70
2022/06/10 04:21:36;;;;;;;1999.90;999.90;;;;;;;16.99;65.92;95982.66;5011109;28;20026;-70
2022/06/10 04:24:01;;;;;;;1999.90;999.90;;;;;;;16.99;65.66;95966.53;5012622;28;20033;-70
2022/06/10 04:26:26;;;;;;;1999.90;999.90;;;;;;;17.25;65.70;95971.78;5011920;28;20064;-70
2022/06/10 04:28:52;;;;;;;1999.90;999.90;;;;;;;16.95;64.01;95970.19;5012185;28;20071;-69
2022/06/10 04:31:19;;;;;;;1999.90;999.90;;;;;;;16.70;64.06;95996.03;5012029;28;20037;-68
2022/06/10 04:33:44;;;;;;;1999.90;999.90;;;;;;;16.84;62.60;96008.19;5012214;28;20030;-67
2022/06/10 04:36:14;;;;;;;1999.90;999.90;;;;;;;16.84;64.46;96034.28;5012207;28;20056;-69
2022/06/10 04:38:40;;;;;;;1999.90;999.90;;;;;;;17.48;65.11;96042.19;5011743;28;20487;-70
2022/06/10 04:41:06;;;;;;;1999.90;999.90;;;;;;;16.74;62.56;95995.09;5011980;28;20061;-69
2022/06/10 04:43:33;;;;;;;1999.90;999.90;;;;;;;16.29;61.77;96011.63;5012237;28;20068;-69
2022/06/10 04:45:59;;;;;;;1999.90;999.90;;;;;;;17.18;63.44;96036.00;5011762;28;20021;-68
2022/06/10 04:48:24;;;;;;;1999.90;999.90;;;;;;;15.80;63.09;95972.69;5010834;28;20059;-68
2022/06/10 04:50:50;;;;;;;1999.90;999.90;;;;;;;16.89;62.51;96034.88;5470919;22;20523;-69
2022/06/10 04:53:15;;;;;;;1999.90;999.90;;;;;;;16.82;63.69;96037.25;5009647;28;20799;-70
2022/06/10 04:55:41;;;;;;;1999.90;999.90;;;;;;;17.39;61.98;96030.66;5009960;28;20042;-69
2022/06/10 04:58:07;;;;;;;1999.90;999.90;;;;;;;17.53;60.58;96041.97;5009343;28;20053;-68
2022/06/10 05:00:37;;;;;;;1999.90;999.90;;;;;;;17.31;62.33;96028.84;5008319;28;20510;-67
2022/06/10 05:03:03;;;;;;;1999.90;999.90;;;;;;;17.90;60.75;96047.63;5008799;28;20014;-67
2022/06/10 05:05:29;;;;;;;1999.90;999.90;;;;;;;18.19;62.38;96038.69;5008141;28;20495;-67
2022/06/10 05:07:55;;;;;;;1999.90;999.90;;;;;;;18.12;60.86;96044.59;5010185;28;20026;-67
2022/06/10 05:10:21;;;;;;;1999.90;999.90;;;;;;;17.93;61.06;96046.97;5009263;28;20049;-69
2022/06/10 05:12:46;;;;;;;1999.90;999.90;;;;;;;18.25;61.97;96039.25;5010778;28;20113;-72
2022/06/10 05:15:14;;;;;;;1999.90;999.90;;;;;;;18.40;58.00;96044.81;5010517;28;20045;-70
2022/06/10 05:17:40;;;;;;;1999.90;999.90;;;;;;;17.68;58.41;96054.88;5011498;28;20033;-70
2022/06/10 05:20:06;;;;;;;1999.90;999.90;;;;;;;17.30;60.42;96048.75;5011290;28;20034;-70
2022/06/10 05:22:31;;;;;;;1999.90;999.90;;;;;;;18.12;59.38;96060.75;5010845;28;20470;-71
2022/06/10 05:24:57;;;;;;;1999.90;999.90;;;;;;;18.31;58.58;96049.50;5011644;28;20041;-72
2022/06/10 05:27:22;;;;;;;1999.90;999.90;;;;;;;18.56;60.55;96047.66;5010460;28;20169;-69
2022/06/10 05:29:47;;;;;;;1999.90;999.90;;;;;;;18.34;57.51;96061.53;5010283;28;20034;-72
2022/06/10 05:32:13;;;;;;;1999.90;999.90;;;;;;;17.36;59.78;96056.31;5009929;28;20033;-72
2022/06/10 05:34:44;;;;;;;1999.90;999.90;;;;;;;16.15;62.54;96056.63;5010170;28;20147;-71
2022/06/10 05:37:14;;;;;;;1999.90;999.90;;;;;;;17.80;60.47;96074.91;5009820;28;20034;-70
2022/06/10 05:39:39;;;;;;;1999.90;999.90;;;;;;;18.08;59.88;96062.53;5010142;28;20026;-72
2022/06/10 05:42:06;;;;;;;1999.90;999.90;;;;;;;18.14;60.58;96080.06;5011647;28;20068;-71
2022/06/10 05:44:37;;;;;;;1999.90;999.90;;;;;;;18.02;57.74;96073.84;5010273;28;20172;-72
2022/06/10 05:47:05;;;;;;;1999.90;999.90;;;;;;;17.54;60.40;96057.00;5010214;28;20535;-71
2022/06/10 05:49:31;;;;;;;1999.90;999.90;;;;;;;17.54;60.29;96067.75;5011310;28;20061;-72
2022/06/10 05:51:56;;;;;;;1999.90;999.90;;;;;;;16.91;61.27;96057.94;5010002;28;20100;-71
2022/06/10 05:54:23;;;;;;;1999.90;999.90;;;;;;;17.92;58.13;96077.69;5009414;28;20121;-70
2022/06/10 05:56:49;;;;;;;1999.90;999.90;;;;;;;17.33;61.49;96072.31;5009978;28;20022;-71
2022/06/10 05:59:14;;;;;;;1999.90;999.90;;;;;;;17.04;59.53;96075.75;5009817;28;20026;-69
2022/06/10 06:01:40;;;;;;;1999.90;999.90;;;;;;;17.21;61.63;96083.75;5010326;28;20053;-69
2022/06/10 06:04:05;;;;;;;1999.90;999.90;;;;;;;18.00;59.74;96076.84;5008905;28;20052;-69
2022/06/10 06:06:31;;;;;;;1999.90;999.90;;;;;;;17.88;58.55;96063.31;5003142;28;20030;-70
2022/06/10 06:08:56;;;;;;;1999.90;999.90;;;;;;;18.26;57.93;96070.44;5009779;28;20018;-69
2022/06/10 06:11:21;;;;;;;1999.90;999.90;;;;;;;18.04;58.05;96080.44;5009097;28;20030;-70
2022/06/10 06:13:47;;;;;;;1999.90;999.90;;;;;;;19.13;58.43;96065.78;5010104;28;20025;-68
2022/06/10 06:16:15;;;;;;;1999.90;999.90;;;;;;;18.58;56.38;96083.16;5009035;28;20108;-71
2022/06/10 06:18:40;;;;;;;1999.90;999.90;;;;;;;18.11;56.93;96053.78;5010738;28;20131;-74
2022/06/10 06:21:06;;;;;;;1999.90;999.90;;;;;;;17.91;57.63;96062.66;5009025;28;20547;-71
2022/06/10 06:23:31;;;;;;;1999.90;999.90;;;;;;;17.68;58.19;96084.47;4991875;28;20426;-72
2022/06/10 06:25:57;;;;;;;1999.90;999.90;;;;;;;17.09;59.55;96084.41;4989534;28;20486;-72
2022/06/10 06:28:22;;;;;;;1999.90;999.90;;;;;;;17.54;58.68;96083.13;4989575;28;20058;-72
2022/06/10 06:30:48;;;;;;;1999.90;999.90;;;;;;;17.62;57.67;96083.06;4988895;28;20065;-70
2022/06/10 06:33:13;;;;;;;1999.90;999.90;;;;;;;18.99;55.90;96083.38;4993288;28;20040;-72
2022/06/10 06:35:39;;;;;;;1999.90;999.90;;;;;;;18.57;56.65;96097.72;5009859;28;20478;-71
2022/06/10 06:38:05;;;;;;;1999.90;999.90;;;;;;;18.65;55.10;96080.72;5008561;28;20088;-72
2022/06/10 06:40:31;;;;;;;1999.90;999.90;;;;;;;19.02;55.23;96093.50;5009169;28;20437;-79
2022/06/10 06:42:57;;;;;;;1999.90;999.90;;;;;;;18.89;55.87;96095.41;5006159;28;20033;-70
2022/06/10 06:45:23;;;;;;;1999.90;999.90;;;;;;;20.47;51.67;96085.63;4991471;28;20389;-72
2022/06/10 06:47:49;;;;;;;1999.90;999.90;;;;;;;19.74;52.43;96071.19;5008048;28;20393;-71
2022/06/10 06:50:23;;;;;;;1999.90;999.90;;;;;;;20.03;52.58;96093.63;5007132;28;20068;-69
2022/06/10 06:52:49;;;;;;;1999.90;999.90;;;;;;;20.21;51.97;96091.44;5004069;28;20474;-69
2022/06/10 06:55:15;;;;;;;1999.90;999.90;;;;;;;19.26;52.91;96107.03;5005473;28;20593;-76
2022/06/10 06:57:44;;;;;;;1999.90;999.90;;;;;;;19.15;53.26;96109.38;5004073;28;20157;-72
2022/06/10 07:00:13;;;;;;;1999.90;999.90;;;;;;;18.26;55.46;96095.47;5005621;28;20053;-70
2022/06/10 07:02:38;;;;;;;1999.90;999.90;;;;;;;18.08;55.85;96100.22;4990330;28;20483;-75
2022/06/10 07:05:05;;;;;;;1999.90;999.90;;;;;;;19.29;54.06;96113.66;4989570;28;20054;-74
2022/06/10 07:07:31;;;;;;;1999.90;999.90;;;;;;;19.81;51.89;96105.72;5009153;28;20030;-73
2022/06/10 07:09:57;;;;;;;1999.90;999.90;;;;;;;20.39;50.63;96103.56;5008372;28;20160;-75
2022/06/10 07:12:22;;;;;;;1999.90;999.90;;;;;;;19.87;50.91;96101.66;5024840;28;20057;-76
2022/06/10 07:14:48;;;;;;;1999.90;999.90;;;;;;;20.29;50.74;96111.38;5009423;28;20478;-77
2022/06/10 07:17:14;;;;;;;1999.90;999.90;;;;;;;20.94;48.71;96107.41;5024342;28;20030;-74
2022/06/10 07:19:39;;;;;;;1999.90;999.90;;;;;;;21.16;48.29;96108.72;5008880;28;20152;-75
2022/06/10 07:22:05;;;;;;;1999.90;999.90;;;;;;;20.28;50.67;96088.97;5013203;28;20038;-77
2022/06/10 07:24:31;;;;;;;1999.90;999.90;;;;;;;20.76;48.49;96096.09;5012224;28;20037;-74
2022/06/10 07:26:59;;;;;;;1999.90;999.90;;;;;;;19.49;51.28;96115.47;5013784;28;20018;-70
2022/06/10 07:29:25;;;;;;;1999.90;999.90;;;;;;;20.53;49.34;96111.31;5011009;28;20425;-73
2022/06/10 07:31:50;;;;;;;1999.90;999.90;;;;;;;20.13;50.06;96076.97;5011921;28;20022;-75
2022/06/10 07:34:16;;;;;;;1999.90;999.90;;;;;;;19.80;50.90;96093.31;5012648;28;20441;-76
2022/06/10 07:36:41;;;;;;;1999.90;999.90;;;;;;;19.50;51.07;96106.28;5028835;28;20032;-72
2022/06/10 07:39:06;;;;;;;1999.90;999.90;;;;;;;20.02;50.57;96102.88;5011635;28;20024;-71
2022/06/10 07:44:20;;;;;;;1999.90;999.90;;;;;;;21.10;48.09;96102.00;5011248;28;20097;-71
2022/06/10 07:46:48;;;;;;;1999.90;999.90;;;;;;;20.29;49.46;96092.44;5011526;28;20433;-70
2022/06/10 07:49:14;;;;;;;1999.90;999.90;;;;;;;19.66;51.21;96115.28;5009112;28;20037;-73
2022/06/10 07:51:39;;;;;;;1999.90;999.90;;;;;;;19.43;50.83;96081.75;5012334;28;20025;-73
2022/06/10 07:54:04;;;;;;;1999.90;999.90;;;;;;;20.32;49.75;96108.78;5012920;28;20038;-71
2022/06/10 07:56:30;;;;;;;1999.90;999.90;;;;;;;20.91;48.48;96091.06;5011848;28;20029;-70
2022/06/10 07:58:58;;;;;;;1999.90;999.90;;;;;;;21.24;48.36;96093.44;5027244;28;20026;-72
2022/06/10 08:01:27;;;;;;;1999.90;999.90;;;;;;;19.43;52.00;96106.81;5011603;28;20026;-67
2022/06/10 08:03:53;;;;;;;1999.90;999.90;;;;;;;19.74;50.28;96106.28;5005101;28;20069;-69
2022/06/10 08:06:20;;;;;;;1999.90;999.90;;;;;;;20.98;48.14;96116.38;5011409;28;20065;-69
2022/06/10 08:08:46;;;;;;;1999.90;999.90;;;;;;;20.96;47.54;96110.53;4992097;28;20121;-68
2022/06/10 08:11:11;;;;;;;1999.90;999.90;;;;;;;20.41;49.19;96117.50;4998565;28;20022;-69
2022/06/10 08:13:37;;;;;;;1999.90;999.90;;;;;;;20.90;47.70;96111.91;5012455;28;20480;-67
2022/06/10 08:16:03;;;;;;;1999.90;999.90;;;;;;;20.53;47.32;96097.81;5010254;28;20021;-70
2022/06/10 08:18:31;;;;;;;1999.90;999.90;;;;;;;21.00;46.80;96116.81;5008694;28;20038;-69
2022/06/10 08:23:42;;;;;;;1999.90;999.90;;;;;;;20.17;51.10;96114.88;5005199;28;20045;-68
2022/06/10 08:26:08;;;;;;;1999.90;999.90;;;;;;;20.18;49.20;96117.25;5011104;28;20030;-68
2022/06/10 08:28:35;;;;;;;1999.90;999.90;;;;;;;21.15;48.28;96109.88;5010818;28;20552;-68
2022/06/10 08:31:01;;;;;;;1999.90;999.90;;;;;;;22.13;47.00;96100.97;5008531;28;20029;-68
2022/06/10 08:33:26;;;;;;;1999.90;999.90;;;;;;;22.08;45.68;96095.81;5010179;28;20040;-69
2022/06/10 08:35:51;;;;;;;1999.90;999.90;;;;;;;20.73;47.53;96098.72;5009950;28;20186;-68
2022/06/10 08:38:18;;;;;;;1999.90;999.90;;;;;;;21.14;47.39;96113.72;5010347;28;20413;-68
2022/06/10 08:40:52;;;;;;;1999.90;999.90;;;;;;;21.92;44.85;96120.22;5010648;28;20102;-68
2022/06/10 08:43:42;;;;;;;1999.90;999.90;;;;;;;22.76;44.27;96114.25;5012202;28;20084;-68
2022/06/10 08:46:34;;;;;;;1999.90;999.90;;;;;;;23.02;42.94;96118.25;5012453;28;20410;-68
2022/06/10 08:48:59;;;;;;;1999.90;999.90;;;;;;;22.68;43.84;96119.91;5012216;28;20034;-68
2022/06/10 08:51:27;;;;;;;1999.90;999.90;;;;;;;22.12;44.23;96121.09;5011877;28;20075;-69
2022/06/10 08:54:02;;;;;;;1999.90;999.90;;;;;;;20.93;46.03;96118.53;5010752;28;20417;-70
2022/06/10 08:56:33;;;;;;;1999.90;999.90;;;;;;;21.46;45.50;96122.66;5010681;28;20160;-68
2022/06/10 08:59:18;;;;;;;1999.90;999.90;;;;;;;22.79;43.41;96116.25;5010504;28;20060;-68
2022/06/10 09:02:02;;;;;;;1999.90;999.90;;;;;;;23.16;41.44;96110.34;5011779;28;20037;-68
2022/06/10 09:04:36;;;;;;;1999.90;999.90;;;;;;;24.43;41.42;96112.69;5010417;28;20424;-69
2022/06/10 09:07:11;;;;;;;1999.90;999.90;;;;;;;25.44;38.74;96111.81;5010321;28;20030;-68
2022/06/10 09:09:39;;;;;;;1999.90;999.90;;;;;;;26.29;36.40;96108.94;5011795;28;20026;-69
2022/06/10 09:12:21;;;;;;;1999.90;999.90;;;;;;;26.63;34.71;96118.47;5010153;28;20109;-68
2022/06/10 09:14:51;;;;;;;1999.90;999.90;;;;;;;26.85;34.27;96115.81;5010428;28;20037;-68
2022/06/10 09:17:25;;;;;;;1999.90;999.90;;;;;;;27.51;33.95;96126.50;5010069;28;20022;-70
2022/06/10 09:20:13;;;;;;;1999.90;999.90;;;;;;;27.04;33.45;96120.94;5010226;28;20033;-69
2022/06/10 09:22:59;;;;;;;1999.90;999.90;;;;;;;25.96;33.85;96124.34;5011341;28;20026;-69
2022/06/10 09:25:31;;;;;;;1999.90;999.90;;;;;;;26.10;33.93;96118.97;5011473;28;20022;-69
2022/06/10 09:27:58;;;;;;;1999.90;999.90;;;;;;;24.69;36.87;96120.00;5010114;28;20025;-69
2022/06/10 09:30:39;;;;;;;1999.90;999.90;;;;;;;25.49;36.86;96116.91;5009397;28;20553;-68
2022/06/10 09:33:32;;;;;;;1999.90;999.90;;;;;;;24.22;37.95;96118.63;5011236;28;20034;-68
2022/06/10 09:36:16;;;;;;;1999.90;999.90;;;;;;;25.23;36.99;96126.81;5009679;28;20088;-68
2022/06/10 09:38:56;;;;;;;1999.90;999.90;;;;;;;25.10;37.61;96125.53;5009729;28;20080;-68
2022/06/10 09:41:28;;;;;;;1999.90;999.90;;;;;;;24.18;38.26;96136.03;5009506;28;20029;-69
2022/06/10 09:44:02;;;;;;;1999.90;999.90;;;;;;;24.06;38.81;96135.09;5010832;28;20075;-70
2022/06/10 09:46:42;;;;;;;1999.90;999.90;;;;;;;24.23;39.02;96125.63;5011018;28;20061;-68
2022/06/10 09:49:42;;;;;;;1999.90;999.90;;;;;;;24.93;37.85;96128.81;5010764;28;20045;-68
2022/06/10 09:52:42;;;;;;;1999.90;999.90;;;;;;;26.03;35.25;96121.63;5008788;28;20467;-68
2022/06/10 09:55:34;;;;;;;1999.90;999.90;;;;;;;24.59;36.97;96120.66;5009436;28;20487;-69
2022/06/10 09:58:20;;;;;;;;;;;;;;;24.29;38.38;96128.78;5009868;28;20030;-69
2022/06/10 10:00:58;;;;;;;1999.90;999.90;;;;;;;23.93;38.56;96111.22;5008377;28;19917;-69
2022/06/10 10:03:57;;;;;;;1999.90;999.90;;;;;;;24.76;38.33;96125.50;5010714;28;20069;-68
2022/06/10 10:06:29;;;;;;;1999.90;999.90;;;;;;;24.88;38.38;96122.56;5008576;28;20120;-69
2022/06/10 10:09:18;;;;;;;1999.90;999.90;;;;;;;23.75;39.58;96125.34;5010516;28;20575;-69
2022/06/10 10:12:02;;;;;;;1999.90;999.90;;;;;;;23.32;38.93;96116.44;5009185;28;20077;-69
2022/06/10 10:14:48;;;;;;;1999.90;999.90;;;;;;;22.86;40.33;96112.88;5010379;28;20454;-69
2022/06/10 10:17:26;;;;;;;1999.90;999.90;;;;;;;24.20;39.83;96107.31;5009261;28;20018;-68
2022/06/10 10:19:54;;;;;;;1999.90;999.90;;;;;;;24.32;37.90;96109.03;5010293;28;20018;-68
2022/06/10 10:22:28;;;;;;;1999.90;999.90;;;;;;;25.16;38.27;96115.84;5008812;28;20053;-69
2022/06/10 10:24:54;;;;;;;1999.90;999.90;;;;;;;23.69;39.29;96120.56;5009119;28;20040;-69
2022/06/10 10:27:27;;;;;;;1999.90;999.90;;;;;;;24.51;36.97;96110.84;5008874;28;20112;-68
2022/06/10 10:30:03;;;;;;;1999.90;999.90;;;;;;;24.97;35.10;96102.41;5010339;28;20481;-68
2022/06/10 10:32:36;;;;;;;1999.90;999.90;;;;;;;25.95;35.42;96103.69;5008042;28;20385;-69
2022/06/10 10:35:17;;;;;;;1999.90;999.90;;;;;;;26.71;34.48;96100.16;5010009;28;20101;-69
2022/06/10 10:37:51;;;;;;;1999.90;999.90;;;;;;;27.01;32.62;96110.00;5010444;28;20045;-68
2022/06/10 10:40:20;;;;;;;1999.90;999.90;;;;;;;26.89;33.70;96092.03;5009725;28;20022;-69
2022/06/10 10:42:47;;;;;;;1999.90;999.90;;;;;;;25.13;34.71;96103.78;5008805;28;20036;-69
2022/06/10 10:45:26;;;;;;;1999.90;999.90;;;;;;;25.31;34.35;96105.88;5009060;28;20080;-69
2022/06/10 10:47:57;;;;;;;1999.90;999.90;;;;;;;25.48;35.50;96104.47;5010109;28;20112;-68
2022/06/10 10:50:30;;;;;;;1999.90;999.90;;;;;;;26.53;33.82;96111.03;5009402;28;20470;-69
2022/06/10 10:52:56;;;;;;;1999.90;999.90;;;;;;;26.16;33.29;96101.09;5010052;28;20429;-69
2022/06/10 10:55:33;;;;;;;1999.90;999.90;;;;;;;26.15;34.00;96098.72;5009053;28;20088;-69
2022/06/10 10:58:17;;;;;;;1999.90;999.90;;;;;;;27.07;31.90;96098.31;5009939;28;20497;-69
2022/06/10 11:00:45;;;;;;;1999.90;999.90;;;;;;;27.85;31.68;96086.69;5008025;28;20026;-69
2022/06/10 11:03:32;;;;;;;1999.90;999.90;;;;;;;28.41;30.32;96101.41;5009883;28;20049;-69
2022/06/10 11:06:04;;;;;;;1999.90;999.90;;;;;;;27.14;30.68;96109.28;5008572;28;20045;-68
2022/06/10 11:08:31;;;;;;;1999.90;999.90;;;;;;;25.53;34.02;96102.16;5008357;28;20108;-70
2022/06/10 11:11:07;;;;;;;1999.90;999.90;;;;;;;25.25;33.70;96097.28;5009439;28;20060;-68
2022/06/10 11:13:44;;;;;;;1999.90;999.90;;;;;;;26.37;33.09;96103.13;5009486;28;20033;-68
2022/06/10 11:16:27;;;;;;;1999.90;999.90;;;;;;;25.77;32.47;96108.22;5009505;28;20088;-68
2022/06/10 11:19:11;;;;;;;1999.90;999.90;;;;;;;26.16;31.52;96105.75;5009858;28;20036;-68
2022/06/10 11:21:55;;;;;;;1999.90;999.90;;;;;;;26.90;31.09;96099.06;5007964;28;20026;-68
2022/06/10 11:24:27;;;;;;;1999.90;999.90;;;;;;;26.73;30.10;96100.56;5009604;28;20026;-68
2022/06/10 11:26:57;;;;;;;1999.90;999.90;;;;;;;27.06;29.54;96094.00;5008433;28;20025;-69